Time;durP1;ratioP1;P1;durP2;ratioP2;P2;SDS_P1;SDS_P2;PMS_P1;PMS_P2;Temp;Humidity;BMP_temperature;BMP_pressure;BME280_temperature;BME280_humidity;BME280_pressure;Samples;Min_cycle;Max_cycle;Signal;HPM_P1;HPM_P2
2022/04/13 00:02:13;;;;;;;6.07;3.00;;;;;;;;;;4994387;28;20225;-63
2022/04/13 00:04:38;;;;;;;7.85;3.00;;;;;;;;;;4994316;28;20213;-63
2022/04/13 00:07:03;;;;;;;9.70;3.25;;;;;;;;;;4994811;28;20296;-63
2022/04/13 00:09:29;;;;;;;8.35;2.90;;;;;;;;;;4995049;28;20699;-63
2022/04/13 00:11:54;;;;;;;8.68;2.92;;;;;;;;;;4994245;28;20564;-63
2022/04/13 00:14:22;;;;;;;8.13;3.25;;;;;;;;;;4994379;28;20336;-63
2022/04/13 00:16:48;;;;;;;9.65;3.17;;;;;;;;;;4993412;28;20686;-63
2022/04/13 00:19:14;;;;;;;7.43;3.08;;;;;;;;;;4993558;28;20217;-63
2022/04/13 00:21:39;;;;;;;5.68;2.50;;;;;;;;;;4995119;28;20205;-63
2022/04/13 00:24:05;;;;;;;7.90;2.95;;;;;;;;;;4994331;28;20601;-63
2022/04/13 00:26:30;;;;;;;7.40;3.08;;;;;;;;;;4993949;28;20213;-63
2022/04/13 00:28:55;;;;;;;9.70;2.92;;;;;;;;;;4994723;28;20638;-63
2022/04/13 00:31:21;;;;;;;7.68;2.92;;;;;;;;;;4994300;28;20670;-63
2022/04/13 00:33:46;;;;;;;9.73;2.90;;;;;;;;;;4993967;28;20267;-63
2022/04/13 00:36:11;;;;;;;6.63;2.90;;;;;;;;;;4994128;28;20288;-63
2022/04/13 00:38:36;;;;;;;11.88;3.03;;;;;;;;;;4993894;28;20201;-63
2022/04/13 00:41:02;;;;;;;7.13;2.63;;;;;;;;;;4994204;28;20213;-63
2022/04/13 00:43:27;;;;;;;7.38;2.70;;;;;;;;;;4994398;28;20225;-63
2022/04/13 00:45:52;;;;;;;9.25;2.72;;;;;;;;;;4993599;28;20264;-63
2022/04/13 00:48:28;;;;;;;6.35;2.50;;;;;;;;;;4993868;28;20270;-63
2022/04/13 00:50:54;;;;;;;6.28;2.55;;;;;;;;;;4994395;28;20220;-63
2022/04/13 00:53:19;;;;;;;8.35;2.65;;;;;;;;;;4992883;28;20755;-63
2022/04/13 00:55:44;;;;;;;5.97;2.70;;;;;;;;;;4993477;28;20209;-63
2022/04/13 00:58:13;;;;;;;9.02;2.80;;;;;;;;;;4993568;28;20220;-63
2022/04/13 01:00:39;;;;;;;9.57;2.80;;;;;;;;;;4991707;28;20214;-63
2022/04/13 01:03:07;;;;;;;7.72;2.88;;;;;;;;;;4993014;28;20823;-63
2022/04/13 01:05:32;;;;;;;8.88;3.13;;;;;;;;;;4994040;28;20244;-63
2022/04/13 01:07:57;;;;;;;13.55;2.97;;;;;;;;;;4992104;28;20240;-63
2022/04/13 01:10:23;;;;;;;7.78;2.75;;;;;;;;;;4993540;28;20656;-63
2022/04/13 01:12:48;;;;;;;11.70;3.00;;;;;;;;;;4993848;28;20221;-65
2022/04/13 01:15:13;;;;;;;10.15;2.67;;;;;;;;;;4982834;28;20232;-63
2022/04/13 01:17:40;;;;;;;8.82;2.38;;;;;;;;;;4983859;28;20232;-64
2022/04/13 01:20:06;;;;;;;7.32;2.80;;;;;;;;;;4984439;28;20602;-63
2022/04/13 01:22:31;;;;;;;9.27;2.70;;;;;;;;;;4964082;28;20692;-63
2022/04/13 01:24:56;;;;;;;10.13;2.97;;;;;;;;;;4976424;28;20252;-63
2022/04/13 01:27:22;;;;;;;9.13;3.17;;;;;;;;;;4983428;28;20201;-63
2022/04/13 01:29:49;;;;;;;7.45;2.72;;;;;;;;;;4998062;28;20292;-63
2022/04/13 01:32:14;;;;;;;7.95;2.53;;;;;;;;;;4980760;28;20217;-63
2022/04/13 01:34:46;;;;;;;5.85;2.70;;;;;;;;;;4964628;28;20214;-63
2022/04/13 01:37:12;;;;;;;8.27;2.47;;;;;;;;;;4975229;28;20648;-63
2022/04/13 01:39:37;;;;;;;9.88;2.83;;;;;;;;;;4975342;28;20212;-63
2022/04/13 01:42:02;;;;;;;6.65;2.30;;;;;;;;;;4974839;28;21043;-63
2022/04/13 01:44:27;;;;;;;11.30;2.67;;;;;;;;;;4982523;28;20213;-63
2022/04/13 01:46:53;;;;;;;6.68;2.15;;;;;;;;;;4983077;28;20585;-63
2022/04/13 01:49:18;;;;;;;9.60;2.42;;;;;;;;;;4979685;28;20217;-63
2022/04/13 01:51:43;;;;;;;11.15;2.63;;;;;;;;;;4964256;28;20673;-63
2022/04/13 01:54:08;;;;;;;9.80;3.00;;;;;;;;;;4963753;28;20237;-63
2022/04/13 01:56:34;;;;;;;11.57;3.10;;;;;;;;;;4982928;28;20673;-63
2022/04/13 01:59:00;;;;;;;6.72;2.33;;;;;;;;;;4964624;28;20332;-63
2022/04/13 02:01:25;;;;;;;10.07;3.08;;;;;;;;;;4956203;28;20241;-63
2022/04/13 02:03:50;;;;;;;8.20;2.80;;;;;;;;;;4955575;28;20225;-63
2022/04/13 02:06:16;;;;;;;6.82;2.90;;;;;;;;;;4963182;28;20225;-63
2022/04/13 02:08:41;;;;;;;9.45;3.25;;;;;;;;;;4970654;28;20227;-63
2022/04/13 02:11:06;;;;;;;8.07;2.70;;;;;;;;;;4969569;28;20229;-63
2022/04/13 02:13:32;;;;;;;8.20;3.20;;;;;;;;;;4970626;28;20744;-63
2022/04/13 02:15:57;;;;;;;9.48;3.00;;;;;;;;;;4970678;28;20684;-63
2022/04/13 02:18:22;;;;;;;11.93;3.58;;;;;;;;;;4969155;28;20233;-63
2022/04/13 02:20:48;;;;;;;6.07;2.78;;;;;;;;;;4968448;28;20626;-63
2022/04/13 02:23:13;;;;;;;7.38;2.72;;;;;;;;;;4962325;28;20229;-63
2022/04/13 02:25:38;;;;;;;6.13;2.88;;;;;;;;;;4981189;28;20213;-63
2022/04/13 02:28:04;;;;;;;9.25;2.55;;;;;;;;;;4982867;28;20209;-63
2022/04/13 02:30:29;;;;;;;6.75;2.30;;;;;;;;;;4989232;28;20722;-63
2022/04/13 02:32:54;;;;;;;9.18;2.60;;;;;;;;;;4988794;28;20213;-63
2022/04/13 02:35:19;;;;;;;8.38;2.80;;;;;;;;;;4988655;28;20245;-63
2022/04/13 02:37:45;;;;;;;8.75;2.88;;;;;;;;;;4989695;28;20614;-63
2022/04/13 02:40:11;;;;;;;11.48;3.35;;;;;;;;;;4988275;28;20219;-63
2022/04/13 02:42:36;;;;;;;9.48;3.47;;;;;;;;;;4989557;28;20700;-63
2022/04/13 02:45:02;;;;;;;7.50;2.40;;;;;;;;;;4981612;28;20216;-63
2022/04/13 02:47:27;;;;;;;7.78;2.72;;;;;;;;;;4981334;28;20217;-63
2022/04/13 02:49:54;;;;;;;9.00;2.83;;;;;;;;;;4982071;28;20592;-63
2022/04/13 02:52:19;;;;;;;8.45;2.95;;;;;;;;;;4987006;28;20783;-63
2022/04/13 02:54:45;;;;;;;8.55;3.03;;;;;;;;;;4989385;28;20307;-63
2022/04/13 02:57:10;;;;;;;9.60;2.85;;;;;;;;;;4988802;28;20221;-63
2022/04/13 02:59:35;;;;;;;7.95;3.00;;;;;;;;;;4970284;28;20206;-63
2022/04/13 03:02:00;;;;;;;8.02;3.33;;;;;;;;;;4970050;28;20221;-63
2022/04/13 03:04:26;;;;;;;8.38;3.05;;;;;;;;;;4970256;28;20214;-63
2022/04/13 03:06:51;;;;;;;9.02;3.30;;;;;;;;;;4965217;28;20218;-63
2022/04/13 03:09:16;;;;;;;9.07;3.65;;;;;;;;;;4962017;28;20238;-63
2022/04/13 03:11:42;;;;;;;10.25;3.22;;;;;;;;;;4962081;28;20752;-63
2022/04/13 03:14:07;;;;;;;9.60;3.97;;;;;;;;;;4964969;28;20221;-63
2022/04/13 03:16:32;;;;;;;10.88;2.88;;;;;;;;;;4970016;28;20221;-63
2022/04/13 03:18:58;;;;;;;9.05;3.83;;;;;;;;;;4966107;28;20217;-63
2022/04/13 03:21:24;;;;;;;13.43;3.47;;;;;;;;;;4965682;28;20218;-63
2022/04/13 03:23:49;;;;;;;8.13;3.47;;;;;;;;;;4979953;28;20246;-63
2022/04/13 03:26:14;;;;;;;8.60;3.30;;;;;;;;;;4966618;28;20604;-63
2022/04/13 03:28:40;;;;;;;8.52;3.17;;;;;;;;;;4964775;28;20673;-63
2022/04/13 03:31:05;;;;;;;13.25;3.40;;;;;;;;;;4980285;28;20581;-63
2022/04/13 03:33:30;;;;;;;8.35;3.38;;;;;;;;;;4962135;28;20836;-63
2022/04/13 03:35:55;;;;;;;9.38;3.45;;;;;;;;;;4957924;28;20218;-63
2022/04/13 03:38:21;;;;;;;7.15;3.28;;;;;;;;;;4959770;28;20218;-63
2022/04/13 03:40:46;;;;;;;9.48;3.17;;;;;;;;;;4985196;28;20607;-63
2022/04/13 03:43:11;;;;;;;11.90;3.75;;;;;;;;;;4984891;28;20225;-63
2022/04/13 03:45:36;;;;;;;10.80;3.28;;;;;;;;;;4985580;28;20217;-63
2022/04/13 03:48:02;;;;;;;11.43;3.55;;;;;;;;;;4984990;28;20224;-63
2022/04/13 03:50:27;;;;;;;8.20;3.30;;;;;;;;;;4984290;28;20263;-63
2022/04/13 03:52:52;;;;;;;7.22;3.20;;;;;;;;;;4966640;28;20768;-63
2022/04/13 03:55:22;;;;;;;9.88;3.92;;;;;;;;;;4959396;28;20241;-63
2022/04/13 03:57:50;;;;;;;10.23;3.60;;;;;;;;;;4973029;28;20229;-63
2022/04/13 04:00:15;;;;;;;10.40;3.20;;;;;;;;;;4976944;28;20315;-63
2022/04/13 04:02:41;;;;;;;8.07;3.10;;;;;;;;;;4964185;28;20780;-63
2022/04/13 04:05:06;;;;;;;8.88;3.47;;;;;;;;;;4965483;28;20217;-63
2022/04/13 04:07:32;;;;;;;7.68;3.67;;;;;;;;;;4966433;28;20221;-63
2022/04/13 04:09:57;;;;;;;11.73;3.47;;;;;;;;;;4965304;28;20213;-63
2022/04/13 04:12:22;;;;;;;10.50;3.30;;;;;;;;;;4965893;28;20221;-63
2022/04/13 04:14:47;;;;;;;9.70;3.67;;;;;;;;;;4965970;28;20693;-63
2022/04/13 04:17:13;;;;;;;13.20;3.67;;;;;;;;;;4961246;28;20221;-63
2022/04/13 04:19:38;;;;;;;9.55;3.80;;;;;;;;;;4957859;28;20213;-66
2022/04/13 04:22:03;;;;;;;7.20;3.70;;;;;;;;;;4957569;28;20221;-64
2022/04/13 04:24:29;;;;;;;11.88;3.97;;;;;;;;;;4984749;28;20229;-64
2022/04/13 04:26:54;;;;;;;7.95;4.03;;;;;;;;;;4994142;28;20263;-63
2022/04/13 04:29:20;;;;;;;10.73;4.07;;;;;;;;;;4957065;28;20235;-63
2022/04/13 04:31:51;;;;;;;10.82;4.22;;;;;;;;;;4957118;28;20209;-63
2022/04/13 04:34:17;;;;;;;14.85;4.15;;;;;;;;;;4976563;28;20220;-63
2022/04/13 04:36:42;;;;;;;14.25;4.72;;;;;;;;;;4983978;28;20225;-63
2022/04/13 04:39:08;;;;;;;9.88;4.40;;;;;;;;;;4983123;28;20222;-63
2022/04/13 04:41:33;;;;;;;11.45;4.68;;;;;;;;;;4984726;28;20209;-63
2022/04/13 04:43:58;;;;;;;10.05;4.50;;;;;;;;;;4984261;28;20253;-63
2022/04/13 04:46:24;;;;;;;13.90;4.78;;;;;;;;;;4998389;28;20209;-63
2022/04/13 04:48:49;;;;;;;11.18;4.43;;;;;;;;;;4984343;28;20213;-63
2022/04/13 04:51:15;;;;;;;13.38;4.63;;;;;;;;;;4978829;28;20224;-63
2022/04/13 04:53:40;;;;;;;12.73;5.43;;;;;;;;;;4975550;28;20257;-63
2022/04/13 04:56:05;;;;;;;10.70;4.90;;;;;;;;;;4975797;28;20225;-63
2022/04/13 04:58:31;;;;;;;16.52;5.05;;;;;;;;;;4971790;28;20249;-63
2022/04/13 05:00:56;;;;;;;13.43;5.30;;;;;;;;;;4964486;28;20242;-63
2022/04/13 05:03:21;;;;;;;10.57;5.40;;;;;;;;;;4968286;28;20563;-63
2022/04/13 05:05:47;;;;;;;14.43;5.63;;;;;;;;;;4964222;28;20210;-64
2022/04/13 05:08:13;;;;;;;11.82;5.47;;;;;;;;;;4979359;28;20240;-63
2022/04/13 05:10:38;;;;;;;8.55;5.15;;;;;;;;;;4964923;28;20317;-63
2022/04/13 05:13:04;;;;;;;13.00;5.97;;;;;;;;;;4978255;28;20780;-63
2022/04/13 05:15:29;;;;;;;10.25;5.88;;;;;;;;;;4975930;28;20217;-63
2022/04/13 05:17:54;;;;;;;11.85;5.43;;;;;;;;;;4975842;28;20224;-63
2022/04/13 05:20:20;;;;;;;11.70;5.82;;;;;;;;;;4977300;28;20717;-63
2022/04/13 05:22:45;;;;;;;13.73;5.88;;;;;;;;;;4983826;28;20237;-64
2022/04/13 05:25:11;;;;;;;13.32;5.78;;;;;;;;;;4964394;28;20708;-62
2022/04/13 05:27:36;;;;;;;14.20;6.05;;;;;;;;;;4976610;28;20688;-63
2022/04/13 05:30:03;;;;;;;13.32;6.40;;;;;;;;;;4992635;28;20303;-64
2022/04/13 05:32:29;;;;;;;12.13;6.03;;;;;;;;;;4993276;28;20664;-62
2022/04/13 05:35:00;;;;;;;13.17;7.33;;;;;;;;;;4989900;28;20479;-62
2022/04/13 05:37:26;;;;;;;13.15;6.65;;;;;;;;;;4991628;28;20237;-62
2022/04/13 05:39:51;;;;;;;14.50;7.28;;;;;;;;;;4992685;28;20209;-62
2022/04/13 05:42:19;;;;;;;12.57;6.63;;;;;;;;;;4991336;28;20221;-63
2022/04/13 05:44:45;;;;;;;12.40;7.40;;;;;;;;;;4992625;28;20693;-63
2022/04/13 05:47:10;;;;;;;13.95;6.63;;;;;;;;;;4992939;28;20288;-63
2022/04/13 05:49:35;;;;;;;11.82;6.93;;;;;;;;;;4992678;28;20243;-63
2022/04/13 05:52:00;;;;;;;12.48;6.65;;;;;;;;;;4991942;28;20329;-63
2022/04/13 05:54:26;;;;;;;14.75;6.82;;;;;;;;;;4991591;28;20241;-64
2022/04/13 05:56:51;;;;;;;17.38;7.10;;;;;;;;;;4991643;28;20240;-63
2022/04/13 05:59:17;;;;;;;17.27;7.63;;;;;;;;;;4990847;28;20213;-62
2022/04/13 06:01:42;;;;;;;15.85;7.32;;;;;;;;;;4992384;28;20205;-62
2022/04/13 06:04:07;;;;;;;17.58;7.47;;;;;;;;;;4991371;28;20298;-62
2022/04/13 06:06:33;;;;;;;22.23;8.40;;;;;;;;;;4992665;28;20201;-62
2022/04/13 06:08:58;;;;;;;28.85;8.85;;;;;;;;;;4992400;28;20213;-63
2022/04/13 06:11:23;;;;;;;22.05;8.52;;;;;;;;;;4991321;28;20236;-64
2022/04/13 06:13:48;;;;;;;22.75;9.27;;;;;;;;;;4993258;28;20209;-63
2022/04/13 06:16:14;;;;;;;20.60;8.48;;;;;;;;;;4991842;28;20217;-63
2022/04/13 06:18:39;;;;;;;18.15;8.93;;;;;;;;;;4993249;28;20732;-63
2022/04/13 06:21:04;;;;;;;25.15;9.43;;;;;;;;;;4992481;28;20216;-63
2022/04/13 06:23:29;;;;;;;18.73;9.20;;;;;;;;;;4991766;28;20704;-62
2022/04/13 06:25:55;;;;;;;17.40;9.38;;;;;;;;;;4992452;28;20213;-69
2022/04/13 06:28:20;;;;;;;20.95;10.10;;;;;;;;;;4992219;28;20571;-69
2022/04/13 06:30:45;;;;;;;17.27;9.57;;;;;;;;;;4991596;28;20660;-70
2022/04/13 06:33:11;;;;;;;19.50;10.85;;;;;;;;;;4992255;28;20217;-64
2022/04/13 06:35:36;;;;;;;18.88;9.77;;;;;;;;;;4992895;28;20215;-63
2022/04/13 06:38:01;;;;;;;19.42;10.38;;;;;;;;;;4991364;28;20747;-63
2022/04/13 06:40:26;;;;;;;18.55;10.93;;;;;;;;;;4991948;28;20248;-63
2022/04/13 06:42:52;;;;;;;20.33;11.13;;;;;;;;;;4992449;28;20252;-62
2022/04/13 06:45:17;;;;;;;18.08;10.65;;;;;;;;;;4991640;28;20294;-63
2022/04/13 06:47:42;;;;;;;20.45;7.78;;;;;;;;;;4992924;28;20216;-62
2022/04/13 06:50:08;;;;;;;21.25;7.88;;;;;;;;;;4992250;28;20209;-75
2022/04/13 06:52:34;;;;;;;17.02;7.30;;;;;;;;;;4991412;28;20221;-74
2022/04/13 06:54:59;;;;;;;19.52;8.27;;;;;;;;;;4995480;28;20221;-71
2022/04/13 06:57:24;;;;;;;14.82;7.82;;;;;;;;;;4993900;28;20201;-69
2022/04/13 06:59:50;;;;;;;19.75;8.75;;;;;;;;;;4995409;28;20217;-68
2022/04/13 07:02:15;;;;;;;13.30;6.88;;;;;;;;;;4995228;28;20205;-67
2022/04/13 07:04:40;;;;;;;13.88;7.40;;;;;;;;;;4996132;28;20574;-68
2022/04/13 07:07:06;;;;;;;13.32;7.35;;;;;;;;;;4994464;28;20288;-67
2022/04/13 07:09:31;;;;;;;12.35;7.18;;;;;;;;;;4996007;28;20231;-68
2022/04/13 07:11:56;;;;;;;11.10;7.30;;;;;;;;;;4995127;28;20217;-68
2022/04/13 07:14:22;;;;;;;15.05;8.77;;;;;;;;;;4993755;28;20224;-70
2022/04/13 07:16:47;;;;;;;15.75;9.15;;;;;;;;;;4995354;28;20577;-61
2022/04/13 07:19:12;;;;;;;15.07;9.18;;;;;;;;;;4995078;28;20217;-62
2022/04/13 07:21:38;;;;;;;19.80;9.40;;;;;;;;;;4994755;28;20208;-61
2022/04/13 07:24:03;;;;;;;15.32;9.38;;;;;;;;;;4994606;28;20308;-62
2022/04/13 07:26:29;;;;;;;17.05;9.07;;;;;;;;;;4994478;28;20212;-61
2022/04/13 07:28:54;;;;;;;16.80;9.43;;;;;;;;;;4995286;28;20311;-62
2022/04/13 07:31:19;;;;;;;14.13;8.68;;;;;;;;;;4995535;28;20217;-62
2022/04/13 07:33:45;;;;;;;14.60;8.65;;;;;;;;;;4994978;28;20747;-62
2022/04/13 07:36:12;;;;;;;14.68;8.90;;;;;;;;;;4995541;28;20209;-62
2022/04/13 07:38:37;;;;;;;15.00;8.63;;;;;;;;;;4995240;28;20225;-61
2022/04/13 07:41:03;;;;;;;18.00;10.82;;;;;;;;;;4993644;28;20239;-61
2022/04/13 07:43:29;;;;;;;12.45;8.60;;;;;;;;;;4994789;28;20221;-61
2022/04/13 07:45:54;;;;;;;13.85;9.10;;;;;;;;;;4995308;28;20209;-62
2022/04/13 07:48:19;;;;;;;16.58;9.55;;;;;;;;;;4994006;28;20220;-63
2022/04/13 07:50:47;;;;;;;19.98;10.40;;;;;;;;;;4995479;28;20209;-62
2022/04/13 07:53:12;;;;;;;17.25;10.05;;;;;;;;;;4992626;28;20901;-61
2022/04/13 07:55:37;;;;;;;18.70;9.20;;;;;;;;;;4994487;28;20213;-62
2022/04/13 07:58:02;;;;;;;15.43;9.27;;;;;;;;;;4994770;28;20213;-62
2022/04/13 08:00:28;;;;;;;14.93;8.20;;;;;;;;;;4995097;28;20614;-62
2022/04/13 08:02:53;;;;;;;12.90;7.18;;;;;;;;;;4996132;28;20386;-62
2022/04/13 08:05:18;;;;;;;11.55;6.10;;;;;;;;;;5013363;28;20216;-62
2022/04/13 08:07:44;;;;;;;8.65;4.93;;;;;;;;;;5014682;28;20212;-62
2022/04/13 08:10:09;;;;;;;11.52;4.78;;;;;;;;;;5013138;28;20219;-63
2022/04/13 08:12:35;;;;;;;9.88;4.45;;;;;;;;;;5014186;28;20223;-62
2022/04/13 08:15:02;;;;;;;6.65;3.88;;;;;;;;;;5014541;28;20258;-62
2022/04/13 08:17:27;;;;;;;8.15;4.03;;;;;;;;;;5013424;28;20702;-62
2022/04/13 08:19:52;;;;;;;8.38;3.90;;;;;;;;;;5014246;28;20213;-62
2022/04/13 08:22:23;;;;;;;9.85;4.55;;;;;;;;;;5013860;28;20579;-62
2022/04/13 08:24:48;;;;;;;8.68;4.40;;;;;;;;;;5013409;28;20271;-62
2022/04/13 08:27:13;;;;;;;7.97;3.95;;;;;;;;;;5013450;28;20216;-62
2022/04/13 08:29:39;;;;;;;8.63;4.63;;;;;;;;;;5014172;28;20204;-62
2022/04/13 08:32:04;;;;;;;9.40;4.15;;;;;;;;;;5013364;28;20231;-62
2022/04/13 08:34:29;;;;;;;11.07;4.90;;;;;;;;;;5013667;28;20213;-62
2022/04/13 08:36:55;;;;;;;9.48;5.15;;;;;;;;;;5013489;28;20225;-62
2022/04/13 08:39:20;;;;;;;9.82;6.47;;;;;;;;;;4994347;28;20653;-62
2022/04/13 08:41:47;;;;;;;12.43;5.40;;;;;;;;;;4994407;28;20680;-62
2022/04/13 08:44:15;;;;;;;11.18;6.38;;;;;;;;;;4992924;28;20225;-62
2022/04/13 08:46:41;;;;;;;17.38;9.02;;;;;;;;;;4994211;28;20236;-62
2022/04/13 08:49:07;;;;;;;15.95;9.77;;;;;;;;;;4992291;28;20240;-62
2022/04/13 08:51:32;;;;;;;15.10;10.18;;;;;;;;;;4993527;28;20241;-62
2022/04/13 08:54:00;;;;;;;18.98;11.68;;;;;;;;;;4993872;28;20240;-63
2022/04/13 08:56:25;;;;;;;16.10;10.05;;;;;;;;;;4993743;28;20237;-62
2022/04/13 08:58:57;;;;;;;18.35;10.20;;;;;;;;;;4991891;28;20248;-61
2022/04/13 09:01:28;;;;;;;14.07;10.13;;;;;;;;;;4993580;28;20208;-62
2022/04/13 09:03:54;;;;;;;17.92;11.65;;;;;;;;;;4993490;28;20604;-62
2022/04/13 09:06:20;;;;;;;22.48;10.77;;;;;;;;;;4992296;28;20220;-62
2022/04/13 09:08:50;;;;;;;24.40;10.15;;;;;;;;;;4992546;28;20213;-62
2022/04/13 09:11:17;;;;;;;19.90;10.48;;;;;;;;;;4992078;28;20221;-62
2022/04/13 09:13:43;;;;;;;18.77;10.30;;;;;;;;;;4991805;28;20266;-62
2022/04/13 09:16:09;;;;;;;19.00;11.77;;;;;;;;;;4992492;28;20340;-61
2022/04/13 09:18:34;;;;;;;18.60;10.40;;;;;;;;;;4992038;28;20688;-62
2022/04/13 09:21:00;;;;;;;16.98;10.20;;;;;;;;;;4992893;28;20217;-62
2022/04/13 09:23:25;;;;;;;14.65;10.50;;;;;;;;;;4991801;28;20241;-61
2022/04/13 09:25:51;;;;;;;18.23;10.73;;;;;;;;;;4993865;28;20307;-62
2022/04/13 09:28:17;;;;;;;19.52;12.18;;;;;;;;;;4992205;28;20220;-62
2022/04/13 09:30:42;;;;;;;17.45;10.60;;;;;;;;;;4993304;28;20664;-62
2022/04/13 09:33:07;;;;;;;18.70;10.98;;;;;;;;;;4992236;28;20232;-62
2022/04/13 09:35:33;;;;;;;20.88;10.90;;;;;;;;;;4993377;28;20217;-62
2022/04/13 09:38:02;;;;;;;16.73;10.35;;;;;;;;;;4991788;28;20335;-62
2022/04/13 09:40:34;;;;;;;13.75;9.40;;;;;;;;;;4992305;28;20299;-62
2022/04/13 09:43:04;;;;;;;16.05;10.20;;;;;;;;;;4992432;28;20225;-62
2022/04/13 09:45:33;;;;;;;13.75;7.55;;;;;;;;;;4990327;28;20216;-62
2022/04/13 09:47:58;;;;;;;11.70;6.38;;;;;;;;;;4990502;28;20672;-65
2022/04/13 09:50:25;;;;;;;14.13;6.20;;;;;;;;;;4992441;28;20232;-62
2022/04/13 09:52:54;;;;;;;12.43;5.60;;;;;;;;;;4992520;28;20672;-63
2022/04/13 09:55:21;;;;;;;10.00;6.07;;;;;;;;;;4990549;28;20229;-62
2022/04/13 09:57:46;;;;;;;11.30;5.97;;;;;;;;;;4993015;28;20204;-62
2022/04/13 10:00:12;;;;;;;12.55;5.90;;;;;;;;;;4991736;28;20229;-63
2022/04/13 10:02:38;;;;;;;9.82;4.35;;;;;;;;;;4991848;28;20213;-63
2022/04/13 10:05:04;;;;;;;8.70;4.32;;;;;;;;;;5003875;28;20220;-63
2022/04/13 10:07:29;;;;;;;7.10;4.15;;;;;;;;;;5012981;28;20590;-63
2022/04/13 10:09:54;;;;;;;7.28;3.83;;;;;;;;;;5011793;28;20216;-63
2022/04/13 10:12:19;;;;;;;9.07;4.20;;;;;;;;;;5012000;28;20270;-63
2022/04/13 10:14:46;;;;;;;8.50;3.75;;;;;;;;;;5012630;28;20287;-63
2022/04/13 10:17:12;;;;;;;10.68;3.53;;;;;;;;;;5009823;28;20303;-63
2022/04/13 10:19:38;;;;;;;8.27;3.75;;;;;;;;;;5012680;28;20263;-63
2022/04/13 10:22:04;;;;;;;9.55;3.78;;;;;;;;;;5012383;28;20213;-63
2022/04/13 10:24:29;;;;;;;8.02;3.90;;;;;;;;;;5011915;28;20230;-63
2022/04/13 10:27:02;;;;;;;8.18;4.03;;;;;;;;;;5013201;28;20302;-63
2022/04/13 10:29:28;;;;;;;12.00;5.18;;;;;;;;;;5015069;28;20303;-63
2022/04/13 10:32:03;;;;;;;8.60;5.53;;;;;;;;;;5015166;28;20299;-63
2022/04/13 10:34:29;;;;;;;11.00;6.50;;;;;;;;;;5016223;28;20740;-63
2022/04/13 10:36:54;;;;;;;12.70;6.00;;;;;;;;;;5015595;28;20220;-63
2022/04/13 10:39:20;;;;;;;8.45;5.07;;;;;;;;;;4996642;28;20558;-63
2022/04/13 10:41:45;;;;;;;8.93;5.35;;;;;;;;;;4995529;28;20578;-63
2022/04/13 10:44:10;;;;;;;8.40;5.22;;;;;;;;;;4977762;28;20278;-63
2022/04/13 10:46:35;;;;;;;7.95;4.97;;;;;;;;;;4996604;28;20213;-62
2022/04/13 10:49:01;;;;;;;10.13;4.63;;;;;;;;;;4994660;28;20358;-62
2022/04/13 10:51:28;;;;;;;9.85;4.65;;;;;;;;;;4995892;28;20228;-62
2022/04/13 10:53:56;;;;;;;8.52;4.22;;;;;;;;;;4996371;28;20245;-63
2022/04/13 10:56:22;;;;;;;10.63;5.45;;;;;;;;;;4996038;28;20571;-62
2022/04/13 10:58:47;;;;;;;9.48;4.65;;;;;;;;;;4994058;28;20220;-62
2022/04/13 11:01:13;;;;;;;11.25;4.57;;;;;;;;;;4995630;28;20300;-63
2022/04/13 11:03:39;;;;;;;10.48;4.53;;;;;;;;;;4995995;28;20653;-62
2022/04/13 11:06:05;;;;;;;10.40;4.88;;;;;;;;;;4995174;28;20209;-63
2022/04/13 11:08:44;;;;;;;7.45;4.20;;;;;;;;;;4996394;28;20201;-63
2022/04/13 11:11:09;;;;;;;7.72;3.95;;;;;;;;;;4995734;28;20263;-62
2022/04/13 11:13:34;;;;;;;10.02;4.25;;;;;;;;;;4993987;28;20206;-62
2022/04/13 11:16:13;;;;;;;8.40;3.90;;;;;;;;;;4996047;28;20233;-62
2022/04/13 11:18:38;;;;;;;9.70;3.75;;;;;;;;;;4994832;28;20240;-62
2022/04/13 11:21:04;;;;;;;8.68;3.80;;;;;;;;;;4994420;28;20233;-63
2022/04/13 11:23:47;;;;;;;7.88;3.63;;;;;;;;;;4995892;28;20348;-63
2022/04/13 11:26:13;;;;;;;5.00;3.15;;;;;;;;;;4994947;28;20714;-62
2022/04/13 11:28:38;;;;;;;9.90;3.97;;;;;;;;;;4995932;28;20288;-62
2022/04/13 11:31:05;;;;;;;7.18;3.20;;;;;;;;;;4995085;28;20672;-62
2022/04/13 11:33:43;;;;;;;8.45;3.33;;;;;;;;;;4993395;28;20213;-62
2022/04/13 11:36:09;;;;;;;10.48;3.88;;;;;;;;;;4995307;28;20217;-62
2022/04/13 11:38:36;;;;;;;5.82;2.67;;;;;;;;;;4994593;28;20201;-63
2022/04/13 11:41:06;;;;;;;6.82;3.35;;;;;;;;;;4994698;28;20275;-62
2022/04/13 11:43:32;;;;;;;9.48;4.57;;;;;;;;;;4995413;28;20312;-62
2022/04/13 11:45:57;;;;;;;9.75;4.30;;;;;;;;;;4995528;28;20292;-62
2022/04/13 11:48:33;;;;;;;8.40;3.83;;;;;;;;;;4992558;28;20201;-62
2022/04/13 11:51:23;;;;;;;9.80;4.22;;;;;;;;;;4995719;28;20225;-62
2022/04/13 11:53:54;;;;;;;10.48;4.85;;;;;;;;;;4994246;28;20601;-62
2022/04/13 11:56:33;;;;;;;7.57;3.50;;;;;;;;;;4994975;28;20687;-62
2022/04/13 11:58:59;;;;;;;7.65;4.25;;;;;;;;;;4995249;28;20209;-62
2022/04/13 12:01:25;;;;;;;9.88;4.30;;;;;;;;;;4993568;28;20273;-63
2022/04/13 12:03:51;;;;;;;8.50;4.20;;;;;;;;;;4993830;28;20302;-62
2022/04/13 12:06:16;;;;;;;11.52;5.22;;;;;;;;;;4994641;28;20292;-62
2022/04/13 12:08:42;;;;;;;9.77;4.65;;;;;;;;;;4993450;28;20209;-62
2022/04/13 12:11:08;;;;;;;7.20;3.72;;;;;;;;;;4994791;28;20248;-62
2022/04/13 12:13:45;;;;;;;9.00;4.60;;;;;;;;;;4995095;28;20209;-63
2022/04/13 12:16:12;;;;;;;7.97;3.90;;;;;;;;;;4993640;28;20283;-62
2022/04/13 12:18:37;;;;;;;11.23;4.22;;;;;;;;;;4993272;28;20209;-62
2022/04/13 12:21:09;;;;;;;11.63;4.38;;;;;;;;;;4993016;28;20216;-62
2022/04/13 12:23:35;;;;;;;9.73;4.05;;;;;;;;;;4992780;28;20279;-63
2022/04/13 12:26:00;;;;;;;7.65;4.03;;;;;;;;;;4994874;28;20205;-62
2022/04/13 12:28:25;;;;;;;12.60;4.25;;;;;;;;;;4994533;28;20216;-62
2022/04/13 12:30:55;;;;;;;10.93;3.53;;;;;;;;;;4994045;28;20225;-63
2022/04/13 12:33:22;;;;;;;9.25;4.93;;;;;;;;;;4993834;28;20235;-63
2022/04/13 12:35:50;;;;;;;9.10;4.53;;;;;;;;;;4994900;28;20271;-63
2022/04/13 12:38:22;;;;;;;12.18;4.75;;;;;;;;;;4993557;28;20728;-63
2022/04/13 12:40:47;;;;;;;7.97;4.70;;;;;;;;;;4994522;28;20228;-65
2022/04/13 12:43:23;;;;;;;9.40;3.60;;;;;;;;;;4993150;28;20614;-63
2022/04/13 12:45:49;;;;;;;7.20;3.47;;;;;;;;;;4994424;28;20676;-63
2022/04/13 12:48:14;;;;;;;10.43;4.45;;;;;;;;;;4993517;28;20345;-63
2022/04/13 12:50:53;;;;;;;10.18;4.40;;;;;;;;;;4993617;28;20304;-63
2022/04/13 12:53:18;;;;;;;9.50;3.95;;;;;;;;;;4992477;28;20212;-63
2022/04/13 12:55:53;;;;;;;11.75;4.47;;;;;;;;;;4994289;28;20692;-63
2022/04/13 12:58:18;;;;;;;8.05;3.45;;;;;;;;;;4993201;28;20215;-63
2022/04/13 13:00:46;;;;;;;10.15;3.95;;;;;;;;;;4994041;28;20719;-62
2022/04/13 13:03:12;;;;;;;9.73;4.35;;;;;;;;;;4993331;28;20234;-62
2022/04/13 13:05:37;;;;;;;8.10;3.67;;;;;;;;;;4993550;28;20760;-63
2022/04/13 13:08:04;;;;;;;8.57;3.22;;;;;;;;;;4993563;28;20221;-63
2022/04/13 13:10:33;;;;;;;9.05;4.03;;;;;;;;;;4993981;28;20574;-63
2022/04/13 13:13:08;;;;;;;9.90;3.92;;;;;;;;;;4993218;28;20224;-63
2022/04/13 13:15:35;;;;;;;9.45;3.58;;;;;;;;;;4993750;28;20204;-63
2022/04/13 13:18:06;;;;;;;8.68;4.20;;;;;;;;;;4984089;28;20218;-62
2022/04/13 13:20:31;;;;;;;7.28;2.85;;;;;;;;;;4976827;28;20205;-63
2022/04/13 13:22:56;;;;;;;8.52;3.30;;;;;;;;;;4993559;28;20229;-62
2022/04/13 13:25:22;;;;;;;9.15;3.55;;;;;;;;;;4992444;28;20211;-62
2022/04/13 13:27:48;;;;;;;11.90;4.43;;;;;;;;;;4993453;28;20259;-62
2022/04/13 13:30:14;;;;;;;9.30;3.40;;;;;;;;;;4992164;28;20228;-62
2022/04/13 13:32:40;;;;;;;6.57;3.15;;;;;;;;;;4992415;28;20209;-62
2022/04/13 13:35:06;;;;;;;9.73;3.83;;;;;;;;;;4992899;28;20214;-62
2022/04/13 13:37:32;;;;;;;10.90;4.10;;;;;;;;;;4993451;28;20228;-62
2022/04/13 13:39:58;;;;;;;9.98;3.45;;;;;;;;;;4992757;28;20342;-68
2022/04/13 13:42:24;;;;;;;7.20;2.95;;;;;;;;;;4993075;28;20699;-68
2022/04/13 13:44:49;;;;;;;9.25;3.97;;;;;;;;;;4993403;28;20228;-68
2022/04/13 13:47:14;;;;;;;6.30;2.90;;;;;;;;;;4991898;28;20217;-67
2022/04/13 13:49:40;;;;;;;8.10;3.33;;;;;;;;;;4993130;28;20292;-68
2022/04/13 13:52:06;;;;;;;7.85;2.95;;;;;;;;;;4992816;28;20225;-67
2022/04/13 13:54:33;;;;;;;8.13;2.95;;;;;;;;;;4992443;28;20618;-67
2022/04/13 13:56:58;;;;;;;9.52;2.90;;;;;;;;;;4993430;28;20213;-67
2022/04/13 13:59:24;;;;;;;6.85;2.55;;;;;;;;;;4992875;28;20205;-66
2022/04/13 14:01:49;;;;;;;9.23;3.20;;;;;;;;;;4991042;28;20220;-67
2022/04/13 14:04:14;;;;;;;8.23;3.10;;;;;;;;;;4990402;28;20244;-71
2022/04/13 14:06:40;;;;;;;11.73;3.20;;;;;;;;;;4992669;28;20213;-71
2022/04/13 14:09:08;;;;;;;8.50;3.25;;;;;;;;;;4990715;28;20584;-69
2022/04/13 14:11:33;;;;;;;6.88;2.53;;;;;;;;;;4993274;28;20224;-71
2022/04/13 14:13:58;;;;;;;7.97;2.25;;;;;;;;;;4993055;28;20217;-71
2022/04/13 14:16:24;;;;;;;5.55;2.00;;;;;;;;;;4991760;28;20209;-71
2022/04/13 14:18:49;;;;;;;5.20;1.52;;;;;;;;;;4992797;28;20263;-70
2022/04/13 14:21:14;;;;;;;3.72;1.60;;;;;;;;;;4992432;28;20256;-72
2022/04/13 14:23:39;;;;;;;5.53;1.90;;;;;;;;;;4990900;28;20220;-71
2022/04/13 14:26:05;;;;;;;4.63;1.30;;;;;;;;;;4992702;28;20272;-70
2022/04/13 14:28:30;;;;;;;5.45;1.85;;;;;;;;;;4992392;28;20219;-71
2022/04/13 14:30:55;;;;;;;5.93;1.60;;;;;;;;;;4992581;28;20212;-70